Hillsboro, Texas
Current Conditions -  °F | °C
As of 7:35 PM on Wednesday 22 Oct 2014 (Local Time) from KINJ Reporting Station
Clear Clear  
Wind Chill: 73°   Ceiling: Unl
Heat Index: 73°   Visibility: 10mi
Dew Point: 55°   Wind: 5mph
Humidity: 55%   Direction: 100°E
Pressure: 30.1"   Gusts: NA
Location:  32.01°N, 97.13°W
Report Text: KINJ 230035Z AUTO 10004KT 10SM CLR 23/13 A3010 RMK AO2 T02250130
Loading
Personal Weather Stations






























Interactive Weather Map
Tropical Storm Tracking
New forecast layout! Learn more

10-Day Weather Forecast

Advertisements
Track Severe Weather on mobile